createdAt,value
2017-01-13T00:00:05.892Z,977.52
2017-01-13T00:01:14.543Z,977.46
2017-01-13T00:02:23.195Z,977.48
2017-01-13T00:03:31.849Z,977.44
2017-01-13T00:04:40.507Z,977.48
2017-01-13T00:05:49.165Z,977.35
2017-01-13T00:06:57.825Z,977.42
2017-01-13T00:08:06.478Z,977.3
2017-01-13T00:09:15.135Z,977.35
2017-01-13T00:10:23.798Z,977.39
2017-01-13T00:11:32.462Z,977.3
2017-01-13T00:12:41.117Z,977.38
2017-01-13T00:13:49.769Z,977.33
2017-01-13T00:14:58.449Z,977.35
2017-01-13T00:16:07.108Z,977.27
2017-01-13T00:17:15.759Z,977.28
2017-01-13T00:18:24.414Z,977.22
2017-01-13T00:19:33.071Z,977.24
2017-01-13T00:20:41.726Z,977.3
2017-01-13T00:21:50.389Z,977.34
2017-01-13T00:22:59.042Z,977.33
2017-01-13T00:24:07.697Z,977.39
2017-01-13T00:25:16.357Z,977.34
2017-01-13T00:26:25.013Z,977.28
2017-01-13T00:27:33.663Z,977.27
2017-01-13T00:28:42.322Z,977.27
2017-01-13T00:29:50.977Z,977.29
2017-01-13T00:30:59.639Z,977.25
2017-01-13T00:32:08.296Z,977.28
2017-01-13T00:33:16.949Z,977.24
2017-01-13T00:34:25.986Z,977.27
2017-01-13T00:35:34.643Z,977.29
2017-01-13T00:36:43.290Z,977.27
2017-01-13T00:37:51.945Z,977.28
2017-01-13T00:39:00.603Z,977.25
2017-01-13T00:40:09.255Z,977.28
2017-01-13T00:41:17.909Z,977.24
2017-01-13T00:42:26.559Z,977.28
2017-01-13T00:43:35.217Z,977.31
2017-01-13T00:44:43.920Z,977.31
2017-01-13T00:45:52.579Z,977.34
2017-01-13T00:47:01.235Z,977.32
2017-01-13T00:48:09.897Z,977.34
2017-01-13T00:49:18.553Z,977.29
2017-01-13T00:50:27.215Z,977.34
2017-01-13T00:51:35.878Z,977.33
2017-01-13T00:52:44.538Z,977.34
2017-01-13T00:53:53.193Z,977.4
2017-01-13T00:55:01.849Z,977.35
2017-01-13T00:56:10.505Z,977.3
2017-01-13T00:57:19.188Z,977.26
2017-01-13T00:58:27.843Z,977.11
2017-01-13T00:59:36.506Z,977.04
2017-01-13T01:00:45.164Z,976.95
2017-01-13T01:01:53.821Z,976.88
2017-01-13T01:03:02.475Z,976.66
2017-01-13T01:04:11.133Z,976.5
2017-01-13T01:05:19.782Z,976.09
2017-01-13T01:06:28.435Z,976.24
2017-01-13T01:07:37.091Z,975.98
2017-01-13T01:08:45.744Z,976.24
2017-01-13T01:09:54.400Z,976.51
2017-01-13T01:11:03.069Z,976.15
2017-01-13T01:12:11.731Z,976.41
2017-01-13T01:13:20.381Z,976.08
2017-01-13T01:14:29.029Z,976.44
2017-01-13T01:15:37.685Z,976.77
2017-01-13T01:16:46.337Z,976.35
2017-01-13T01:17:54.998Z,976.72
2017-01-13T01:19:03.652Z,976.81
2017-01-13T01:20:12.304Z,977.17
2017-01-13T01:21:20.959Z,976.52
2017-01-13T01:22:29.612Z,976.84
2017-01-13T01:23:38.267Z,977.07
2017-01-13T01:24:46.930Z,976.67
2017-01-13T01:25:55.581Z,976.96
2017-01-13T01:27:04.235Z,976.62
2017-01-13T01:28:12.884Z,976.97
2017-01-13T01:29:21.559Z,977.23
2017-01-13T01:30:30.207Z,976.89
2017-01-13T01:31:38.857Z,977.28
2017-01-13T01:32:47.509Z,977.06
2017-01-13T01:33:56.169Z,977.52
2017-01-13T01:35:04.818Z,977.21
2017-01-13T01:36:13.475Z,977.71
2017-01-13T01:37:22.129Z,977.4
2017-01-13T01:38:30.779Z,977.92
2017-01-13T01:39:39.431Z,977.68
2017-01-13T01:40:48.085Z,977.43
2017-01-13T01:41:56.738Z,977.98
2017-01-13T01:43:05.385Z,977.73
2017-01-13T01:44:14.032Z,977.61
2017-01-13T01:45:22.690Z,977.47
2017-01-13T01:46:31.345Z,978.1
2017-01-13T01:47:40.000Z,978.04
2017-01-13T01:48:48.650Z,977.92
2017-01-13T01:49:57.300Z,977.83
2017-01-13T01:51:05.955Z,977.81
2017-01-13T01:52:14.623Z,977.75
2017-01-13T01:53:23.280Z,977.63
2017-01-13T01:54:31.933Z,978.4
2017-01-13T01:55:40.582Z,978.35
2017-01-13T01:56:49.230Z,978.34
2017-01-13T01:57:57.882Z,978.31
2017-01-13T01:59:06.535Z,978.3
2017-01-13T02:00:15.184Z,978.33
2017-01-13T02:01:23.829Z,978.3
2017-01-13T02:02:32.481Z,978.28
2017-01-13T02:03:41.132Z,978.3
2017-01-13T02:04:49.787Z,978.31
2017-01-13T02:05:58.436Z,979.04
2017-01-13T02:07:07.091Z,979.12
2017-01-13T02:08:15.738Z,979.13
2017-01-13T02:09:24.387Z,979.19
2017-01-13T02:10:33.040Z,979.21
2017-01-13T02:11:41.714Z,979.21
2017-01-13T02:12:50.368Z,979.24
2017-01-13T02:13:59.021Z,979.24
2017-01-13T02:15:07.674Z,979.25
2017-01-13T02:16:16.329Z,979.25
2017-01-13T02:17:24.980Z,979.3
2017-01-13T02:18:33.637Z,979.31
2017-01-13T02:19:42.285Z,979.31
2017-01-13T02:20:50.956Z,979.34
2017-01-13T02:21:59.609Z,979.35
2017-01-13T02:23:08.260Z,979.4
2017-01-13T02:24:16.910Z,979.46
2017-01-13T02:25:25.559Z,979.44
2017-01-13T02:26:34.214Z,979.46
2017-01-13T02:27:42.863Z,979.51
2017-01-13T02:28:51.514Z,980
2017-01-13T02:30:00.175Z,980.05
2017-01-13T02:31:08.826Z,980.09
2017-01-13T02:32:17.473Z,980.1
2017-01-13T02:33:26.123Z,980.13
2017-01-13T02:34:34.776Z,980.15
2017-01-13T02:35:43.430Z,980.19
2017-01-13T02:36:52.083Z,980.19
2017-01-13T02:38:01.117Z,980.22
2017-01-13T02:39:09.772Z,980.24
2017-01-13T02:40:18.420Z,980.22
2017-01-13T02:41:27.455Z,980.27
2017-01-13T02:42:36.110Z,980.27
2017-01-13T02:43:44.764Z,981.05
2017-01-13T02:44:53.410Z,981.09
2017-01-13T02:46:02.066Z,981.09
2017-01-13T02:47:10.718Z,981.14
2017-01-13T02:48:19.378Z,981.12
2017-01-13T02:49:28.039Z,981.02
2017-01-13T02:50:36.768Z,980.97
2017-01-13T02:51:45.901Z,980.94
2017-01-13T02:52:54.819Z,980.83
2017-01-13T02:54:03.465Z,980.74
2017-01-13T02:55:12.112Z,981.15
2017-01-13T02:56:20.761Z,981.11
2017-01-13T02:57:29.413Z,981.05
2017-01-13T02:58:38.068Z,981.02
2017-01-13T02:59:46.710Z,980.99
2017-01-13T03:00:55.368Z,981.31
2017-01-13T03:02:04.019Z,981.33
2017-01-13T03:03:12.670Z,981.31
2017-01-13T03:04:21.323Z,981.31
2017-01-13T03:05:29.975Z,981.28
2017-01-13T03:06:38.629Z,982.04
2017-01-13T03:07:47.665Z,982.05
2017-01-13T03:08:56.319Z,982.07
2017-01-13T03:10:04.974Z,982.05
2017-01-13T03:11:13.626Z,982.01
2017-01-13T03:12:22.281Z,982.04
2017-01-13T03:13:30.933Z,982.01
2017-01-13T03:14:39.583Z,982.06
2017-01-13T03:15:48.235Z,982.05
2017-01-13T03:16:56.889Z,982.02
2017-01-13T03:20:01.952Z,982.01
2017-01-13T03:21:10.607Z,982.01
2017-01-13T03:22:19.265Z,982.61
2017-01-13T03:23:27.921Z,982.63
2017-01-13T03:24:36.573Z,982.62
2017-01-13T03:25:45.227Z,982.66
2017-01-13T03:26:53.878Z,982.63
2017-01-13T03:28:02.554Z,982.6
2017-01-13T03:29:11.213Z,982.64
2017-01-13T03:30:19.872Z,982.7
2017-01-13T03:31:28.527Z,982.67
2017-01-13T03:32:37.186Z,982.75
2017-01-13T03:33:45.851Z,982.74
2017-01-13T03:34:54.505Z,983.52
2017-01-13T03:36:03.156Z,983.49
2017-01-13T03:37:11.811Z,983.53
2017-01-13T03:38:20.472Z,983.54
2017-01-13T03:39:29.129Z,983.61
2017-01-13T03:40:37.789Z,983.62
2017-01-13T03:41:46.446Z,983.6
2017-01-13T03:42:55.096Z,983.62
2017-01-13T03:44:03.765Z,983.64
2017-01-13T03:45:12.448Z,983.63
2017-01-13T03:46:21.127Z,983.62
2017-01-13T03:47:29.783Z,983.7
2017-01-13T03:48:38.443Z,983.68
2017-01-13T03:49:47.096Z,983.69
2017-01-13T03:50:55.758Z,984.48
2017-01-13T03:52:04.415Z,984.47
2017-01-13T03:53:13.093Z,984.48
2017-01-13T03:54:21.746Z,984.54
2017-01-13T03:55:30.404Z,984.51
2017-01-13T03:56:39.069Z,984.49
2017-01-13T03:57:47.729Z,984.54
2017-01-13T03:58:56.415Z,984.53
2017-01-13T04:00:05.076Z,984.56
2017-01-13T04:01:13.737Z,984.57
2017-01-13T04:02:22.395Z,984.63
2017-01-13T04:03:31.055Z,984.65
2017-01-13T04:04:39.707Z,984.7
2017-01-13T04:05:48.365Z,984.74
2017-01-13T04:06:57.016Z,984.81
2017-01-13T04:08:05.675Z,984.79
2017-01-13T04:09:14.327Z,985.63
2017-01-13T04:10:22.979Z,985.64
2017-01-13T04:11:31.638Z,985.69
2017-01-13T04:12:40.292Z,985.74
2017-01-13T04:13:50.624Z,985.81
2017-01-13T04:15:07.379Z,985.87
2017-01-13T04:16:16.163Z,985.95
2017-01-13T04:17:26.938Z,986.01
2017-01-13T04:18:39.731Z,986.08
2017-01-13T04:19:52.510Z,986.13
2017-01-13T04:21:05.801Z,986.15
2017-01-13T04:22:18.921Z,986.2
2017-01-13T04:23:36.776Z,986.26
2017-01-13T04:24:48.328Z,986.32
2017-01-13T04:26:00.839Z,986.32
2017-01-13T04:27:14.688Z,986.41
2017-01-13T04:28:24.726Z,986.45
2017-01-13T04:29:36.913Z,986.5
2017-01-13T04:30:47.625Z,986.54
2017-01-13T04:31:58.198Z,986.63
2017-01-13T04:33:10.243Z,986.7
2017-01-13T04:34:18.898Z,986.69
2017-01-13T04:35:27.561Z,986.74
2017-01-13T04:36:36.235Z,986.77
2017-01-13T04:37:44.894Z,986.8
2017-01-13T04:38:53.554Z,986.85
2017-01-13T04:40:02.233Z,986.92
2017-01-13T04:41:10.882Z,986.87
2017-01-13T04:42:19.540Z,986.93
2017-01-13T04:43:28.197Z,986.99
2017-01-13T04:44:36.857Z,987.05
2017-01-13T04:45:45.512Z,987.12
2017-01-13T04:46:54.172Z,987.15
2017-01-13T04:48:02.835Z,987.24
2017-01-13T04:49:11.497Z,987.31
2017-01-13T04:50:20.180Z,987.29
2017-01-13T04:51:28.837Z,987.43
2017-01-13T04:52:37.492Z,987.49
2017-01-13T04:53:46.150Z,987.55
2017-01-13T04:54:54.802Z,987.66
2017-01-13T04:56:03.463Z,987.65
2017-01-13T04:57:12.123Z,987.68
2017-01-13T04:58:20.783Z,987.74
2017-01-13T04:59:29.440Z,987.83
2017-01-13T05:00:38.101Z,987.88
2017-01-13T05:01:46.760Z,988
2017-01-13T05:02:55.417Z,988.05
2017-01-13T05:04:04.077Z,988.13
2017-01-13T05:05:12.741Z,988.24
2017-01-13T05:06:21.404Z,988.29
2017-01-13T05:07:30.063Z,988.36
2017-01-13T05:08:38.718Z,988.41
2017-01-13T05:09:47.376Z,988.45
2017-01-13T05:10:56.038Z,988.49
2017-01-13T05:12:04.695Z,988.55
2017-01-13T05:13:13.352Z,988.61
2017-01-13T05:14:22.231Z,988.72
2017-01-13T05:15:31.400Z,988.81
2017-01-13T05:16:40.056Z,988.83
2017-01-13T05:17:48.715Z,988.91
2017-01-13T05:18:57.750Z,989.07
2017-01-13T05:20:06.407Z,989.12
2017-01-13T05:21:15.071Z,989.15
2017-01-13T05:22:23.725Z,989.22
2017-01-13T05:23:32.380Z,989.31
2017-01-13T05:24:41.036Z,989.43
2017-01-13T05:25:49.724Z,989.48
2017-01-13T05:26:58.386Z,989.51
2017-01-13T05:28:07.047Z,989.57
2017-01-13T05:29:15.708Z,989.63
2017-01-13T05:30:24.369Z,989.66
2017-01-13T05:31:33.034Z,989.63
2017-01-13T05:32:41.692Z,989.65
2017-01-13T05:33:50.347Z,989.71
2017-01-13T05:34:59.008Z,989.78
2017-01-13T05:36:07.665Z,989.75
2017-01-13T05:37:16.325Z,989.74
2017-01-13T05:38:24.976Z,989.72
2017-01-13T05:39:33.630Z,989.77
2017-01-13T05:40:42.284Z,989.79
2017-01-13T05:41:50.950Z,989.77
2017-01-13T05:42:59.621Z,989.8
2017-01-13T05:44:08.283Z,989.86
2017-01-13T05:45:16.978Z,989.88
2017-01-13T05:46:25.636Z,989.9
2017-01-13T05:47:34.292Z,989.91
2017-01-13T05:48:42.946Z,989.92
2017-01-13T05:49:51.602Z,989.96
2017-01-13T05:51:00.296Z,990
2017-01-13T05:52:08.949Z,990.04
2017-01-13T05:53:17.606Z,990.17
2017-01-13T05:54:26.264Z,990.2
2017-01-13T05:55:34.928Z,990.26
2017-01-13T05:56:43.584Z,990.34
2017-01-13T05:57:52.241Z,990.41
2017-01-13T05:59:00.901Z,990.33
2017-01-13T06:00:09.590Z,990.35
2017-01-13T06:01:18.247Z,990.33
2017-01-13T06:02:26.907Z,990.38
2017-01-13T06:03:35.566Z,991.17
2017-01-13T06:04:44.228Z,991.14
2017-01-13T06:05:52.880Z,991.16
2017-01-13T06:07:01.538Z,991.15
2017-01-13T06:08:10.205Z,991.17
2017-01-13T06:09:18.861Z,991.17
2017-01-13T06:10:27.519Z,991.25
2017-01-13T06:11:36.175Z,991.28
2017-01-13T06:12:44.830Z,991.32
2017-01-13T06:13:53.494Z,991.32
2017-01-13T06:15:02.156Z,991.39
2017-01-13T06:16:10.837Z,991.48
2017-01-13T06:17:19.500Z,991.41
2017-01-13T06:18:28.358Z,991.42
2017-01-13T06:19:37.006Z,991.41
2017-01-13T06:20:45.662Z,991.43
2017-01-13T06:21:54.320Z,991.44
2017-01-13T06:23:02.976Z,991.45
2017-01-13T06:24:11.631Z,991.49
2017-01-13T06:25:20.286Z,991.56
2017-01-13T06:26:28.945Z,991.56
2017-01-13T06:27:37.999Z,991.64
2017-01-13T06:28:46.652Z,991.62
2017-01-13T06:29:55.308Z,991.65
2017-01-13T06:31:03.964Z,991.72
2017-01-13T06:32:12.618Z,991.71
2017-01-13T06:33:21.273Z,991.69
2017-01-13T06:34:29.929Z,991.68
2017-01-13T06:35:38.601Z,991.72
2017-01-13T06:36:47.268Z,991.77
2017-01-13T06:37:55.931Z,991.76
2017-01-13T06:39:04.593Z,991.82
2017-01-13T06:40:13.279Z,991.89
2017-01-13T06:41:21.936Z,991.94
2017-01-13T06:42:30.599Z,991.95
2017-01-13T06:43:39.252Z,991.93
2017-01-13T06:44:47.918Z,991.96
2017-01-13T06:45:56.578Z,991.93
2017-01-13T06:47:05.234Z,991.92
2017-01-13T06:48:13.898Z,991.88
2017-01-13T06:49:22.566Z,991.84
2017-01-13T06:50:31.244Z,992.7
2017-01-13T06:51:39.904Z,992.65
2017-01-13T06:52:48.568Z,992.51
2017-01-13T06:53:57.250Z,992.44
2017-01-13T06:55:05.903Z,992.39
2017-01-13T06:56:14.590Z,992.3
2017-01-13T06:57:23.264Z,992.23
2017-01-13T06:58:31.920Z,992.86
2017-01-13T06:59:40.581Z,992.79
2017-01-13T07:00:49.234Z,992.7
2017-01-13T07:01:57.893Z,992.63
2017-01-13T07:03:06.548Z,992.61
2017-01-13T07:04:15.204Z,992.59
2017-01-13T07:05:23.860Z,992.57
2017-01-13T07:06:32.515Z,992.51
2017-01-13T07:07:41.177Z,993.84
2017-01-13T07:08:49.839Z,993.82
2017-01-13T07:09:58.499Z,993.85
2017-01-13T07:11:07.163Z,993.93
2017-01-13T07:12:15.816Z,994.01
2017-01-13T07:13:24.471Z,994.05
2017-01-13T07:14:33.128Z,994.01
2017-01-13T07:15:41.810Z,994.04
2017-01-13T07:16:50.471Z,994.07
2017-01-13T07:17:59.131Z,994.1
2017-01-13T07:19:07.789Z,994.13
2017-01-13T07:20:16.442Z,994.18
2017-01-13T07:21:25.107Z,994.26
2017-01-13T07:22:33.767Z,994.27
2017-01-13T07:23:42.427Z,994.36
2017-01-13T07:24:51.110Z,994.32
2017-01-13T07:25:59.768Z,994.35
2017-01-13T07:27:08.431Z,994.38
2017-01-13T07:28:17.089Z,994.46
2017-01-13T07:29:25.748Z,994.5
2017-01-13T07:30:34.402Z,994.48
2017-01-13T07:31:43.058Z,994.6
2017-01-13T07:32:51.737Z,994.64
2017-01-13T07:34:00.424Z,994.63
2017-01-13T07:35:09.079Z,994.64
2017-01-13T07:36:17.740Z,994.67
2017-01-13T07:37:26.397Z,994.76
2017-01-13T07:38:35.055Z,994.79
2017-01-13T07:39:43.715Z,994.89
2017-01-13T07:40:52.378Z,994.92
2017-01-13T07:42:01.034Z,994.9
2017-01-13T07:43:09.688Z,994.9
2017-01-13T07:44:18.738Z,994.98
2017-01-13T07:45:27.402Z,994.99
2017-01-13T07:46:36.062Z,994.96
2017-01-13T07:47:44.723Z,995.03
2017-01-13T07:48:53.390Z,995.09
2017-01-13T07:50:02.050Z,995.1
2017-01-13T07:51:10.707Z,995.07
2017-01-13T07:52:19.372Z,995.11
2017-01-13T07:53:28.031Z,995.09
2017-01-13T07:54:36.707Z,995.15
2017-01-13T07:55:45.376Z,995.16
2017-01-13T07:56:54.038Z,995.11
2017-01-13T07:58:02.702Z,995.2
2017-01-13T07:59:11.357Z,995.26
2017-01-13T08:00:20.018Z,995.38
2017-01-13T08:01:28.672Z,995.39
2017-01-13T08:02:37.336Z,995.4
2017-01-13T08:03:45.991Z,995.46
2017-01-13T08:04:54.648Z,995.53
2017-01-13T08:06:03.306Z,995.5
2017-01-13T08:07:11.965Z,995.53
2017-01-13T08:08:20.620Z,995.64
2017-01-13T08:09:29.281Z,995.63
2017-01-13T08:10:37.938Z,995.64
2017-01-13T08:11:46.606Z,995.67
2017-01-13T08:12:55.271Z,995.67
2017-01-13T08:14:03.955Z,995.74
2017-01-13T08:15:12.625Z,995.73
2017-01-13T08:16:21.285Z,995.78
2017-01-13T08:17:29.944Z,995.81
2017-01-13T08:18:38.600Z,995.87
2017-01-13T08:19:47.260Z,995.85
2017-01-13T08:20:55.951Z,995.91
2017-01-13T08:22:04.614Z,995.93
2017-01-13T08:23:13.269Z,995.97
2017-01-13T08:24:21.931Z,995.95
2017-01-13T08:25:30.594Z,995.91
2017-01-13T08:26:39.283Z,995.96
2017-01-13T08:27:47.943Z,995.92
2017-01-13T08:28:56.627Z,996.06
2017-01-13T08:30:05.284Z,996.05
2017-01-13T08:31:13.943Z,996.09
2017-01-13T08:32:22.608Z,996.09
2017-01-13T08:33:31.265Z,996.08
2017-01-13T08:34:39.923Z,996.12
2017-01-13T08:35:48.587Z,996.19
2017-01-13T08:36:57.249Z,996.19
2017-01-13T08:38:05.907Z,996.18
2017-01-13T08:39:14.564Z,996.25
2017-01-13T08:40:23.223Z,996.23
2017-01-13T08:41:31.887Z,996.25
2017-01-13T08:42:40.545Z,996.26
2017-01-13T08:43:49.207Z,996.29
2017-01-13T08:44:57.866Z,996.31
2017-01-13T08:46:06.528Z,996.19
2017-01-13T08:47:15.191Z,996.25
2017-01-13T08:48:23.855Z,996.27
2017-01-13T08:49:32.543Z,996.34
2017-01-13T08:50:41.240Z,996.32
2017-01-13T08:51:49.907Z,996.46
2017-01-13T08:52:58.601Z,996.42
2017-01-13T08:54:07.264Z,996.43
2017-01-13T08:55:15.923Z,996.49
2017-01-13T08:56:24.589Z,996.49
2017-01-13T08:57:33.245Z,996.55
2017-01-13T08:58:41.905Z,996.63
2017-01-13T08:59:50.570Z,996.65
2017-01-13T09:00:59.232Z,996.68
2017-01-13T09:02:07.895Z,996.63
2017-01-13T09:03:16.560Z,996.72
2017-01-13T09:04:25.220Z,996.74
2017-01-13T09:05:33.897Z,996.73
2017-01-13T09:06:42.560Z,996.8
2017-01-13T09:07:51.216Z,996.89
2017-01-13T09:08:59.875Z,996.87
2017-01-13T09:10:08.534Z,996.95
2017-01-13T09:11:17.198Z,996.95
2017-01-13T09:12:25.864Z,996.99
2017-01-13T09:13:34.940Z,996.95
2017-01-13T09:14:43.600Z,997.11
2017-01-13T09:15:52.258Z,997
2017-01-13T09:17:00.919Z,997.03
2017-01-13T09:18:09.593Z,997.13
2017-01-13T09:19:18.246Z,997.16
2017-01-13T09:20:26.910Z,997.17
2017-01-13T09:21:35.572Z,997.2
2017-01-13T09:22:44.231Z,997.16
2017-01-13T09:23:52.888Z,997.11
2017-01-13T09:25:01.546Z,997.18
2017-01-13T09:26:10.241Z,997.19
2017-01-13T09:27:18.901Z,997.22
2017-01-13T09:28:27.558Z,997.33
2017-01-13T09:29:36.220Z,997.32
2017-01-13T09:30:44.874Z,997.33
2017-01-13T09:31:53.918Z,997.34
2017-01-13T09:33:02.581Z,997.35
2017-01-13T09:34:11.245Z,997.44
2017-01-13T09:35:19.909Z,997.39
2017-01-13T09:36:28.575Z,997.44
2017-01-13T09:37:37.232Z,997.49
2017-01-13T09:38:45.892Z,997.49
2017-01-13T09:39:54.561Z,997.46
2017-01-13T09:41:03.219Z,997.49
2017-01-13T09:42:11.887Z,997.45
2017-01-13T09:43:20.548Z,997.47
2017-01-13T09:44:29.230Z,997.51
2017-01-13T09:45:37.885Z,997.52
2017-01-13T09:46:46.544Z,997.55
2017-01-13T09:47:55.202Z,997.51
2017-01-13T09:49:03.861Z,997.51
2017-01-13T09:50:12.525Z,997.51
2017-01-13T09:51:21.189Z,997.52
2017-01-13T09:52:29.852Z,997.58
2017-01-13T09:53:38.506Z,997.59
2017-01-13T09:54:47.166Z,997.66
2017-01-13T09:55:56.230Z,997.71
2017-01-13T09:57:04.889Z,997.68
2017-01-13T09:58:13.546Z,997.75
2017-01-13T09:59:22.203Z,997.72
2017-01-13T10:00:30.861Z,997.73
2017-01-13T10:01:39.520Z,997.76
2017-01-13T10:02:48.183Z,997.83
2017-01-13T10:03:56.845Z,997.84
2017-01-13T10:05:05.508Z,997.85
2017-01-13T10:06:14.167Z,997.98
2017-01-13T10:07:23.213Z,998.04
2017-01-13T10:08:31.867Z,998.02
2017-01-13T10:09:40.526Z,997.98
2017-01-13T10:10:49.212Z,998.01
2017-01-13T10:11:57.875Z,998.02
2017-01-13T10:13:06.529Z,998.06
2017-01-13T10:14:15.185Z,998.06
2017-01-13T10:15:23.847Z,998.05
2017-01-13T10:16:32.509Z,998.12
2017-01-13T10:17:41.168Z,998.2
2017-01-13T10:18:49.823Z,998.17
2017-01-13T10:19:58.482Z,998.16
2017-01-13T10:21:07.141Z,998.15
2017-01-13T10:22:15.806Z,998.16
2017-01-13T10:23:24.466Z,998.2
2017-01-13T10:24:33.124Z,998.24
2017-01-13T10:25:41.787Z,998.2
2017-01-13T10:26:50.450Z,998.21
2017-01-13T10:27:59.111Z,998.23
2017-01-13T10:29:07.781Z,998.33
2017-01-13T10:30:16.438Z,998.32
2017-01-13T10:31:25.109Z,998.35
2017-01-13T10:32:33.772Z,998.35
2017-01-13T10:33:42.439Z,998.38
2017-01-13T10:34:51.099Z,998.39
2017-01-13T10:35:59.759Z,998.34
2017-01-13T10:37:08.417Z,998.41
2017-01-13T10:38:17.073Z,998.43
2017-01-13T10:39:25.743Z,998.43
2017-01-13T10:40:34.396Z,998.43
2017-01-13T10:41:43.060Z,998.43
2017-01-13T10:42:51.719Z,998.46
2017-01-13T10:44:00.780Z,998.4
2017-01-13T10:45:09.448Z,998.35
2017-01-13T10:46:18.904Z,998.35
2017-01-13T10:47:27.562Z,998.38
2017-01-13T10:48:36.221Z,998.38
2017-01-13T10:49:44.885Z,998.35
2017-01-13T10:50:53.543Z,998.4
2017-01-13T10:52:02.210Z,998.37
2017-01-13T10:53:10.865Z,998.4
2017-01-13T10:54:19.529Z,998.4
2017-01-13T10:55:28.186Z,998.34
2017-01-13T10:56:36.855Z,998.38
2017-01-13T10:57:45.514Z,998.33
2017-01-13T10:58:54.172Z,998.34
2017-01-13T11:00:02.831Z,998.35
2017-01-13T11:01:11.496Z,998.32
2017-01-13T11:02:20.157Z,998.32
2017-01-13T11:03:28.825Z,998.29
2017-01-13T11:04:37.478Z,998.29
2017-01-13T11:05:46.167Z,998.33
2017-01-13T11:06:54.824Z,998.34
2017-01-13T11:08:03.483Z,998.35
2017-01-13T11:09:12.139Z,998.38
2017-01-13T11:10:20.802Z,998.29
2017-01-13T11:11:29.456Z,998.33
2017-01-13T11:12:38.120Z,998.25
2017-01-13T11:13:46.781Z,998.3
2017-01-13T11:14:55.441Z,998.33
2017-01-13T11:16:04.096Z,998.34
2017-01-13T11:17:12.756Z,998.31
2017-01-13T11:18:21.422Z,998.31
2017-01-13T11:19:30.083Z,998.3
2017-01-13T11:20:38.767Z,998.37
2017-01-13T11:21:47.431Z,998.3
2017-01-13T11:22:56.123Z,998.33
2017-01-13T11:24:04.787Z,998.26
2017-01-13T11:25:13.444Z,998.29
2017-01-13T11:26:22.112Z,998.27
2017-01-13T11:27:30.770Z,998.3
2017-01-13T11:28:39.437Z,998.32
2017-01-13T11:29:48.103Z,998.29
2017-01-13T11:30:56.775Z,998.35
2017-01-13T11:32:05.445Z,998.31
2017-01-13T11:33:14.114Z,998.3
2017-01-13T11:34:22.771Z,998.28
2017-01-13T11:35:31.431Z,998.27
2017-01-13T11:36:40.094Z,998.26
2017-01-13T11:37:48.753Z,998.34
2017-01-13T11:38:57.411Z,998.37
2017-01-13T11:40:06.078Z,998.38
2017-01-13T11:41:14.744Z,998.34
2017-01-13T11:42:23.403Z,998.43
2017-01-13T11:43:32.062Z,998.36
2017-01-13T11:44:40.722Z,998.43
2017-01-13T11:45:49.380Z,998.4
2017-01-13T11:46:58.038Z,998.45
2017-01-13T11:48:06.701Z,998.43
2017-01-13T11:49:15.366Z,998.43
2017-01-13T11:50:24.024Z,998.42
2017-01-13T11:51:32.683Z,998.38
2017-01-13T11:52:41.348Z,998.43
2017-01-13T11:53:50.007Z,998.43
2017-01-13T11:54:58.671Z,998.49
2017-01-13T11:56:07.329Z,998.47
2017-01-13T11:57:15.992Z,998.39
2017-01-13T11:58:24.681Z,998.43
2017-01-13T11:59:33.337Z,998.46
2017-01-13T12:00:42.000Z,998.42
2017-01-13T12:01:50.678Z,998.42
2017-01-13T12:02:59.349Z,998.47
2017-01-13T12:04:08.018Z,998.46
2017-01-13T12:05:16.679Z,998.42
2017-01-13T12:06:25.339Z,998.44
2017-01-13T12:07:33.996Z,998.45
2017-01-13T12:08:42.657Z,998.51
2017-01-13T12:09:51.313Z,998.46
2017-01-13T12:10:59.974Z,998.47
2017-01-13T12:12:08.634Z,998.52
2017-01-13T12:13:17.294Z,998.52
2017-01-13T12:14:26.337Z,998.55
2017-01-13T12:15:34.996Z,998.57
2017-01-13T12:16:43.655Z,998.57
2017-01-13T12:17:52.310Z,998.5
2017-01-13T12:19:00.965Z,998.45
2017-01-13T12:20:09.629Z,998.51
2017-01-13T12:21:18.296Z,998.51
2017-01-13T12:22:26.962Z,998.54
2017-01-13T12:23:35.631Z,998.41
2017-01-13T12:24:44.317Z,998.49
2017-01-13T12:25:52.987Z,998.54
2017-01-13T12:27:01.652Z,998.4
2017-01-13T12:28:10.312Z,998.49
2017-01-13T12:29:18.970Z,998.48
2017-01-13T12:30:27.625Z,998.44
2017-01-13T12:31:36.286Z,998.55
2017-01-13T12:32:44.947Z,998.46
2017-01-13T12:33:53.609Z,998.49
2017-01-13T12:35:02.271Z,998.44
2017-01-13T12:36:10.937Z,998.45
2017-01-13T12:37:19.596Z,998.53
2017-01-13T12:38:28.255Z,998.56
2017-01-13T12:39:36.921Z,998.51
2017-01-13T12:40:45.608Z,998.52
2017-01-13T12:41:54.277Z,998.54
2017-01-13T12:43:02.944Z,998.48
2017-01-13T12:44:11.605Z,998.54
2017-01-13T12:45:20.265Z,998.46
2017-01-13T12:46:28.927Z,998.51
2017-01-13T12:47:37.591Z,998.58
2017-01-13T12:48:46.256Z,998.58
2017-01-13T12:49:54.919Z,998.55
2017-01-13T12:51:03.581Z,998.58
2017-01-13T12:52:12.251Z,998.46
2017-01-13T12:53:20.911Z,998.54
2017-01-13T12:54:29.567Z,998.53
2017-01-13T12:55:38.225Z,998.51
2017-01-13T12:56:46.885Z,998.49
2017-01-13T12:57:55.546Z,998.57
2017-01-13T12:59:04.210Z,998.54
2017-01-13T13:00:12.873Z,998.63
2017-01-13T13:01:21.535Z,998.62
2017-01-13T13:02:30.198Z,998.63
2017-01-13T13:03:38.870Z,998.65
2017-01-13T13:04:47.909Z,998.68
2017-01-13T13:05:56.565Z,998.73
2017-01-13T13:07:05.220Z,998.6
2017-01-13T13:08:13.882Z,998.6
2017-01-13T13:09:22.538Z,998.63
2017-01-13T13:10:31.202Z,998.66
2017-01-13T13:11:39.864Z,998.64
2017-01-13T13:12:48.533Z,998.58
2017-01-13T13:13:57.193Z,998.61
2017-01-13T13:15:05.857Z,998.61
2017-01-13T13:16:14.517Z,998.62
2017-01-13T13:17:23.179Z,998.55
2017-01-13T13:18:31.842Z,998.61
2017-01-13T13:19:40.497Z,998.65
2017-01-13T13:20:49.159Z,998.68
2017-01-13T13:21:57.821Z,998.64
2017-01-13T13:23:06.488Z,998.64
2017-01-13T13:24:15.181Z,998.7
2017-01-13T13:25:23.843Z,998.63
2017-01-13T13:26:32.512Z,998.65
2017-01-13T13:27:41.180Z,998.67
2017-01-13T13:28:49.847Z,998.64
2017-01-13T13:29:58.510Z,998.69
2017-01-13T13:31:07.175Z,998.71
2017-01-13T13:32:15.861Z,998.71
2017-01-13T13:33:24.519Z,998.7
2017-01-13T13:34:33.219Z,998.78
2017-01-13T13:35:41.882Z,998.78
2017-01-13T13:36:50.544Z,998.78
2017-01-13T13:37:59.206Z,998.78
2017-01-13T13:39:07.865Z,998.82
2017-01-13T13:40:16.530Z,998.73
2017-01-13T13:41:25.207Z,998.7
2017-01-13T13:42:33.900Z,998.72
2017-01-13T13:43:42.559Z,998.76
2017-01-13T13:44:51.225Z,998.72
2017-01-13T13:45:59.888Z,998.77
2017-01-13T13:47:08.558Z,998.73
2017-01-13T13:48:17.217Z,998.74
2017-01-13T13:49:25.878Z,998.7
2017-01-13T13:50:34.538Z,998.72
2017-01-13T13:51:43.196Z,998.68
2017-01-13T13:52:51.855Z,998.65
2017-01-13T13:54:00.518Z,998.75
2017-01-13T13:55:09.192Z,998.73
2017-01-13T13:56:17.851Z,998.72
2017-01-13T13:57:26.511Z,998.76
2017-01-13T13:58:35.176Z,998.71
2017-01-13T13:59:43.836Z,998.73
2017-01-13T14:00:52.499Z,998.68
2017-01-13T14:02:01.150Z,998.72
2017-01-13T14:03:09.851Z,998.69
2017-01-13T14:04:18.520Z,998.64
2017-01-13T14:05:27.184Z,998.72
2017-01-13T14:06:35.847Z,998.68
2017-01-13T14:07:44.508Z,998.77
2017-01-13T14:08:53.170Z,998.71
2017-01-13T14:10:01.828Z,998.72
2017-01-13T14:11:10.496Z,998.71
2017-01-13T14:12:19.155Z,998.74
2017-01-13T14:13:27.817Z,998.72
2017-01-13T14:14:36.488Z,998.78
2017-01-13T14:15:45.185Z,998.79
2017-01-13T14:16:53.843Z,998.78
2017-01-13T14:18:02.520Z,998.75
2017-01-13T14:19:11.194Z,998.8
2017-01-13T14:20:19.858Z,998.72
2017-01-13T14:21:28.514Z,998.78